createdAt,value
2023-03-05T00:14:26.636Z,100318.41
2023-03-05T00:16:55.215Z,100318.41
2023-03-05T00:19:23.209Z,100337.31
2023-03-05T00:21:51.086Z,100318.44
2023-03-05T00:24:19.271Z,100331.25
2023-03-05T00:26:47.670Z,100310.50
2023-03-05T00:29:18.711Z,100327.44
2023-03-05T00:31:48.294Z,100319.66
2023-03-05T00:51:44.646Z,100293.69
2023-03-05T00:54:13.169Z,100293.69
2023-03-05T00:56:41.019Z,100286.47
2023-03-05T00:59:09.068Z,100292.53
2023-03-05T01:01:37.248Z,100296.00
2023-03-05T01:04:05.836Z,100292.28
2023-03-05T01:06:33.652Z,100300.38
2023-03-05T01:09:02.193Z,100298.47
2023-03-05T01:29:11.907Z,100278.97
2023-03-05T01:31:40.510Z,100278.97
2023-03-05T01:34:08.400Z,100289.91
2023-03-05T01:36:36.271Z,100281.78
2023-03-05T01:39:04.870Z,100288.66
2023-03-05T01:41:34.205Z,100285.47
2023-03-05T01:44:02.281Z,100296.75
2023-03-05T02:04:55.037Z,100305.94
2023-03-05T02:07:25.098Z,100305.94
2023-03-05T02:09:53.163Z,100302.06
2023-03-05T02:12:21.305Z,100307.56
2023-03-05T02:14:59.187Z,100298.63
2023-03-05T02:17:28.254Z,100299.59
2023-03-05T02:20:05.300Z,100288.00
2023-03-05T02:22:33.142Z,100281.91
2023-03-05T02:37:50.289Z,100272.78
2023-03-05T02:40:19.497Z,100276.78
2023-03-05T02:42:47.306Z,100278.91
2023-03-05T02:45:15.545Z,100264.31
2023-03-05T02:47:43.775Z,100267.19
2023-03-05T02:50:12.309Z,100245.59
2023-03-05T02:52:40.618Z,100256.06
2023-03-05T02:55:09.857Z,100263.84
2023-03-05T03:15:19.630Z,100278.00
2023-03-05T03:17:48.705Z,100278.00
2023-03-05T03:20:18.008Z,100274.41
2023-03-05T03:22:47.139Z,100272.44
2023-03-05T03:25:19.362Z,100270.97
2023-03-05T03:27:47.189Z,100268.63
2023-03-05T03:30:15.991Z,100270.66
2023-03-05T03:32:48.028Z,100274.91
2023-03-05T03:53:14.775Z,100254.47
2023-03-05T03:55:44.152Z,100254.47
2023-03-05T03:58:14.682Z,100258.31
2023-03-05T04:00:43.138Z,100268.34
2023-03-05T04:03:11.330Z,100267.94
2023-03-05T04:05:39.401Z,100267.25
2023-03-05T04:08:12.139Z,100219.50
2023-03-05T04:10:40.720Z,100268.94
2023-03-05T04:31:06.517Z,100264.66
2023-03-05T04:33:35.228Z,100264.66
2023-03-05T04:36:03.076Z,100265.31
2023-03-05T04:38:30.916Z,100263.28
2023-03-05T04:40:59.224Z,100261.91
2023-03-05T04:43:27.051Z,100253.38
2023-03-05T04:45:56.136Z,100257.50
2023-03-05T05:08:46.781Z,100258.78
2023-03-05T05:11:15.373Z,100258.78
2023-03-05T05:13:43.149Z,100265.06
2023-03-05T05:16:11.021Z,100263.28
2023-03-05T05:18:39.249Z,100249.09
2023-03-05T05:21:11.531Z,100261.63
2023-03-05T05:23:40.409Z,100261.22
2023-03-05T05:46:34.898Z,100272.28
2023-03-05T05:49:03.459Z,100272.28
2023-03-05T05:51:31.429Z,100267.13
2023-03-05T05:53:59.301Z,100274.72
2023-03-05T05:56:27.663Z,100270.41
2023-03-05T05:58:55.709Z,100263.69
2023-03-05T06:01:34.278Z,100272.50
2023-03-05T06:09:36.641Z,100276.78
2023-03-05T06:12:05.863Z,100276.78
2023-03-05T06:14:33.846Z,100274.50
2023-03-05T06:17:01.721Z,100288.97
2023-03-05T06:19:30.122Z,100284.44
2023-03-05T06:21:58.409Z,100290.38
2023-03-05T06:24:26.347Z,100292.72
2023-03-05T06:26:54.667Z,100299.81
2023-03-05T06:47:02.331Z,100296.09
2023-03-05T06:49:30.851Z,100296.09
2023-03-05T06:51:58.745Z,100300.72
2023-03-05T06:54:26.559Z,100301.25
2023-03-05T06:56:54.733Z,100308.63
2023-03-05T06:59:22.639Z,100303.19
2023-03-05T07:01:50.708Z,100295.84
2023-03-05T07:22:42.514Z,100306.56
2023-03-05T07:25:11.383Z,100306.56
2023-03-05T07:27:39.281Z,100312.66
2023-03-05T07:30:07.907Z,100309.09
2023-03-05T07:32:36.401Z,100305.66
2023-03-05T07:35:04.742Z,100309.78
2023-03-05T07:37:32.653Z,100308.44
2023-03-05T07:40:01.321Z,100306.13
2023-03-05T08:00:35.778Z,100290.59
2023-03-05T08:03:04.634Z,100290.59
2023-03-05T08:05:32.571Z,100300.38
2023-03-05T08:08:00.397Z,100277.66
2023-03-05T08:10:28.596Z,100295.78
2023-03-05T08:12:56.438Z,100274.19
2023-03-05T08:15:24.301Z,100298.00
2023-03-05T08:17:52.555Z,100295.84
2023-03-05T08:38:17.953Z,100287.69
2023-03-05T08:40:48.402Z,100287.69
2023-03-05T08:43:17.977Z,100291.53
2023-03-05T08:45:47.596Z,100293.34
2023-03-05T08:48:16.031Z,100297.28
2023-03-05T08:50:43.954Z,100293.03
2023-03-05T08:53:12.277Z,100293.25
2023-03-05T08:55:43.213Z,100291.56
2023-03-05T08:58:12.331Z,100299.38
2023-03-05T09:18:09.552Z,100271.69
2023-03-05T09:20:38.640Z,100271.69
2023-03-05T09:23:06.438Z,100270.50
2023-03-05T09:25:34.488Z,100266.84
2023-03-05T09:28:03.122Z,100259.78
2023-03-05T09:30:31.323Z,100246.78
2023-03-05T09:32:59.356Z,100249.00
2023-03-05T09:50:12.577Z,100239.09
2023-03-05T09:53:10.623Z,100242.41
2023-03-05T09:55:42.793Z,100229.00
2023-03-05T09:58:20.081Z,100222.53
2023-03-05T10:00:59.152Z,100214.00
2023-03-05T10:03:34.685Z,100217.97
2023-03-05T10:22:28.226Z,100215.06
2023-03-05T10:25:02.388Z,100215.06
2023-03-05T10:27:36.074Z,100214.94
2023-03-05T10:30:22.075Z,100212.47
2023-03-05T10:33:10.469Z,100202.06
2023-03-05T10:36:16.782Z,100200.81
2023-03-05T10:50:39.386Z,100185.69
2023-03-05T10:53:27.798Z,100185.69
2023-03-05T10:55:58.564Z,100184.22
2023-03-05T10:58:27.073Z,100180.16
2023-03-05T11:01:26.141Z,100182.25
2023-03-05T11:19:57.988Z,100141.22
2023-03-05T11:22:26.846Z,100141.22
2023-03-05T11:25:19.125Z,100137.31
2023-03-05T11:27:59.102Z,100132.59
2023-03-05T11:30:34.521Z,100137.84
2023-03-05T11:33:16.168Z,100127.84
2023-03-05T11:35:45.087Z,100122.97
2023-03-05T11:52:18.200Z,100089.41
2023-03-05T11:55:02.825Z,100089.41
2023-03-05T11:57:41.990Z,100092.09
2023-03-05T12:00:24.835Z,100092.59
2023-03-05T12:02:56.758Z,100084.31
2023-03-05T12:05:26.622Z,100081.66
2023-03-05T12:25:26.314Z,100043.13
2023-03-05T12:27:55.503Z,100043.13
2023-03-05T12:30:36.934Z,100050.00
2023-03-05T12:33:08.466Z,100064.66
2023-03-05T12:35:40.989Z,100051.66
2023-03-05T12:38:30.194Z,100050.47
2023-03-05T12:55:24.698Z,100041.00
2023-03-05T12:58:19.567Z,100041.00
2023-03-05T13:00:56.106Z,100028.06
2023-03-05T13:03:31.454Z,100032.28
2023-03-05T13:06:08.308Z,100037.69
2023-03-05T13:08:38.007Z,100032.06
2023-03-05T13:11:16.728Z,100028.59
2023-03-05T13:29:30.946Z,100014.50
2023-03-05T13:32:21.183Z,100014.50
2023-03-05T13:34:59.619Z,100012.31
2023-03-05T13:37:32.641Z,100018.84
2023-03-05T13:40:07.266Z,100018.78
2023-03-05T13:42:36.986Z,100016.50
2023-03-05T14:06:28.968Z,99994.09
2023-03-05T14:09:05.976Z,99994.09
2023-03-05T14:11:35.734Z,99993.06
2023-03-05T14:14:16.907Z,99998.31
2023-03-05T14:16:45.099Z,99993.53
2023-03-05T14:19:36.624Z,99985.94
2023-03-05T14:22:06.580Z,99978.75
2023-03-05T14:43:04.439Z,99959.53
2023-03-05T14:45:43.776Z,99959.53
2023-03-05T14:48:16.397Z,99968.13
2023-03-05T14:50:51.760Z,99966.22
2023-03-05T14:53:24.214Z,99961.69
2023-03-05T14:55:57.621Z,99966.88
2023-03-05T14:58:35.696Z,99963.25
2023-03-05T15:19:03.958Z,99941.50
2023-03-05T15:21:33.101Z,99941.50
2023-03-05T15:24:01.174Z,99942.91
2023-03-05T15:26:29.379Z,99946.66
2023-03-05T15:31:35.231Z,99929.38
2023-03-05T15:34:03.547Z,99948.13
2023-03-05T15:36:43.990Z,99942.06
2023-03-05T15:57:11.361Z,99933.06
2023-03-05T15:59:40.608Z,99933.06
2023-03-05T16:02:08.893Z,99938.03
2023-03-05T16:04:37.309Z,99950.09
2023-03-05T16:07:06.220Z,99950.56
2023-03-05T16:09:41.436Z,99938.25
2023-03-05T16:36:21.247Z,99954.91
2023-03-05T16:38:52.350Z,99954.91
2023-03-05T16:41:23.172Z,99948.63
2023-03-05T16:43:54.262Z,99947.59
2023-03-05T16:46:25.002Z,99950.41
2023-03-05T16:48:54.062Z,99945.00
2023-03-05T16:51:23.241Z,99961.47
2023-03-05T16:53:52.363Z,99958.84
2023-03-05T17:13:55.595Z,99995.84
2023-03-05T17:16:24.544Z,99995.19
2023-03-05T17:18:52.947Z,99991.47
2023-03-05T17:21:21.015Z,100006.87
2023-03-05T17:23:49.603Z,100009.87
2023-03-05T17:26:20.002Z,100010.19
2023-03-05T17:28:48.407Z,100009.56
2023-03-05T17:31:16.909Z,100016.75
2023-03-05T17:49:00.127Z,100029.19
2023-03-05T17:51:31.168Z,100029.19
2023-03-05T17:53:59.301Z,100021.88
2023-03-05T17:56:27.529Z,100028.28
2023-03-05T17:58:56.947Z,100029.44
2023-03-05T18:01:28.419Z,100027.00
2023-03-05T18:03:58.108Z,100030.59
2023-03-05T18:27:01.218Z,100023.03
2023-03-05T18:29:30.237Z,100019.75
2023-03-05T18:31:58.176Z,100022.38
2023-03-05T18:34:27.084Z,100014.97
2023-03-05T18:36:55.641Z,100013.00
2023-03-05T18:39:23.808Z,100017.28
2023-03-05T18:41:51.732Z,100020.88
2023-03-05T19:04:31.524Z,100009.06
2023-03-05T19:07:00.409Z,100009.06
2023-03-05T19:09:58.945Z,100012.81
2023-03-05T19:12:35.158Z,100015.12
2023-03-05T19:15:13.932Z,100022.03
2023-03-05T19:17:42.784Z,100016.13
2023-03-05T19:20:13.074Z,100013.81
2023-03-05T19:40:04.941Z,100012.50
2023-03-05T19:42:35.875Z,100012.50
2023-03-05T19:45:04.064Z,100019.34
2023-03-05T19:47:32.286Z,99994.06
2023-03-05T19:50:00.880Z,100017.38
2023-03-05T19:52:29.151Z,100016.91
2023-03-05T19:54:57.197Z,100017.69
2023-03-05T20:18:05.094Z,100009.75
2023-03-05T20:20:33.881Z,100009.75
2023-03-05T20:23:02.853Z,100006.53
2023-03-05T20:25:31.019Z,100007.84
2023-03-05T20:28:00.832Z,100004.22
2023-03-05T20:30:29.177Z,100003.25
2023-03-05T20:32:57.316Z,99997.03
2023-03-05T20:53:16.241Z,99984.25
2023-03-05T20:55:45.559Z,99984.25
2023-03-05T20:58:13.763Z,99983.34
2023-03-05T21:00:42.775Z,99989.94
2023-03-05T21:03:11.960Z,99985.25
2023-03-05T21:05:40.076Z,99988.41
2023-03-05T21:08:08.467Z,99982.28
2023-03-05T21:10:47.039Z,99982.78
2023-03-05T21:26:09.666Z,99961.25
2023-03-05T21:28:40.005Z,99961.25
2023-03-05T21:31:10.872Z,99972.41
2023-03-05T21:33:39.138Z,99968.00
2023-03-05T21:36:07.859Z,99969.63
2023-03-05T21:38:36.598Z,99970.91
2023-03-05T21:41:05.672Z,99972.94
2023-03-05T22:02:16.668Z,99954.00
2023-03-05T22:04:46.156Z,99954.00
2023-03-05T22:07:14.886Z,99960.91
2023-03-05T22:09:43.004Z,99957.81
2023-03-05T22:13:10.801Z,99966.34
2023-03-05T22:15:44.093Z,99965.69
2023-03-05T22:18:14.088Z,99959.69
2023-03-05T22:38:26.944Z,99960.06
2023-03-05T22:40:55.636Z,99960.06
2023-03-05T22:43:23.538Z,99961.28
2023-03-05T22:45:51.320Z,99952.84
2023-03-05T22:48:19.506Z,99959.31
2023-03-05T22:50:55.639Z,99949.78
2023-03-05T22:53:23.971Z,99947.56
2023-03-05T22:55:52.004Z,99950.97
2023-03-05T23:13:19.052Z,99914.28
2023-03-05T23:15:47.479Z,99914.28
2023-03-05T23:18:15.454Z,99925.81
2023-03-05T23:20:43.293Z,99925.13
2023-03-05T23:23:12.530Z,99918.16
2023-03-05T23:25:40.466Z,99931.31
2023-03-05T23:28:08.279Z,99934.53
2023-03-05T23:30:48.297Z,99926.25
2023-03-05T23:48:30.390Z,99915.03
2023-03-05T23:50:59.073Z,99915.03
2023-03-05T23:53:29.355Z,99920.16
2023-03-05T23:55:57.528Z,99922.63
2023-03-05T23:58:25.932Z,99919.69
